sensor_id;sensor_type;location;lat;lon;timestamp;pressure;altitude;pressure_sealevel;temperature;humidity
68197;BME280;55019;49.382;11.358;2023-06-14T00:00:12;96264.47;;;16.94;45.65
68197;BME280;55019;49.382;11.358;2023-06-14T00:02:41;96268.69;;;16.95;45.77
68197;BME280;55019;49.382;11.358;2023-06-14T00:05:08;96262.09;;;16.92;46.02
68197;BME280;55019;49.382;11.358;2023-06-14T00:07:35;96270.69;;;16.93;45.37
68197;BME280;55019;49.382;11.358;2023-06-14T00:10:02;96270.53;;;16.88;46.24
68197;BME280;55019;49.382;11.358;2023-06-14T00:12:28;96264.78;;;16.73;46.44
68197;BME280;55019;49.382;11.358;2023-06-14T00:14:53;96265.22;;;16.70;46.30
68197;BME280;55019;49.382;11.358;2023-06-14T00:17:19;96274.47;;;16.66;47.01
68197;BME280;55019;49.382;11.358;2023-06-14T00:19:46;96273.28;;;16.62;47.06
68197;BME280;55019;49.382;11.358;2023-06-14T00:22:11;96256.97;;;16.73;46.34
68197;BME280;55019;49.382;11.358;2023-06-14T00:24:37;96266.47;;;16.61;47.35
68197;BME280;55019;49.382;11.358;2023-06-14T00:27:03;96267.66;;;16.52;46.88
68197;BME280;55019;49.382;11.358;2023-06-14T00:29:29;96256.50;;;16.32;46.81
68197;BME280;55019;49.382;11.358;2023-06-14T00:31:55;96266.72;;;16.40;47.47
68197;BME280;55019;49.382;11.358;2023-06-14T00:34:21;96265.94;;;16.26;47.55
68197;BME280;55019;49.382;11.358;2023-06-14T00:36:47;96266.75;;;16.27;48.75
68197;BME280;55019;49.382;11.358;2023-06-14T00:39:13;96262.72;;;16.31;49.21
68197;BME280;55019;49.382;11.358;2023-06-14T00:41:39;96263.53;;;16.38;48.23
68197;BME280;55019;49.382;11.358;2023-06-14T00:44:05;96264.16;;;16.33;48.53
68197;BME280;55019;49.382;11.358;2023-06-14T00:46:31;96244.75;;;16.10;48.69
68197;BME280;55019;49.382;11.358;2023-06-14T00:48:58;96250.34;;;16.07;49.34
68197;BME280;55019;49.382;11.358;2023-06-14T00:51:25;96265.38;;;16.05;48.17
68197;BME280;55019;49.382;11.358;2023-06-14T00:53:52;96255.97;;;16.04;49.08
68197;BME280;55019;49.382;11.358;2023-06-14T00:56:17;96254.56;;;16.08;48.90
68197;BME280;55019;49.382;11.358;2023-06-14T00:58:50;96256.59;;;15.93;49.64
68197;BME280;55019;49.382;11.358;2023-06-14T01:01:16;96246.59;;;15.77;50.04
68197;BME280;55019;49.382;11.358;2023-06-14T01:03:44;96264.22;;;15.82;50.48
68197;BME280;55019;49.382;11.358;2023-06-14T01:09:25;96261.03;;;15.67;50.73
68197;BME280;55019;49.382;11.358;2023-06-14T01:14:21;96246.03;;;15.36;51.13
68197;BME280;55019;49.382;11.358;2023-06-14T01:16:48;96260.84;;;15.29;51.41
68197;BME280;55019;49.382;11.358;2023-06-14T01:19:21;96244.38;;;15.22;51.38
68197;BME280;55019;49.382;11.358;2023-06-14T01:21:51;96253.78;;;15.04;52.59
68197;BME280;55019;49.382;11.358;2023-06-14T01:24:17;96251.16;;;14.97;52.76
68197;BME280;55019;49.382;11.358;2023-06-14T01:26:45;96274.00;;;15.21;52.51
68197;BME280;55019;49.382;11.358;2023-06-14T01:29:13;96269.00;;;15.26;52.09
68197;BME280;55019;49.382;11.358;2023-06-14T01:31:45;96265.78;;;15.18;52.69
68197;BME280;55019;49.382;11.358;2023-06-14T01:34:11;96252.19;;;15.09;52.75
68197;BME280;55019;49.382;11.358;2023-06-14T01:36:39;96267.19;;;15.14;52.76
68197;BME280;55019;49.382;11.358;2023-06-14T01:39:06;96257.34;;;14.90;53.44
68197;BME280;55019;49.382;11.358;2023-06-14T01:41:33;96266.78;;;15.04;53.26
68197;BME280;55019;49.382;11.358;2023-06-14T01:44:00;96250.13;;;14.85;53.54
68197;BME280;55019;49.382;11.358;2023-06-14T01:46:27;96246.13;;;14.83;53.61
68197;BME280;55019;49.382;11.358;2023-06-14T01:48:54;96247.09;;;14.75;53.72
68197;BME280;55019;49.382;11.358;2023-06-14T01:51:20;96250.91;;;14.79;53.87
68197;BME280;55019;49.382;11.358;2023-06-14T01:53:46;96255.69;;;14.76;53.53
68197;BME280;55019;49.382;11.358;2023-06-14T01:56:12;96248.91;;;14.81;53.99
68197;BME280;55019;49.382;11.358;2023-06-14T01:58:38;96246.00;;;14.50;54.60
68197;BME280;55019;49.382;11.358;2023-06-14T02:01:04;96264.50;;;14.68;54.33
68197;BME280;55019;49.382;11.358;2023-06-14T02:03:30;96255.75;;;14.36;55.43
68197;BME280;55019;49.382;11.358;2023-06-14T02:05:56;96263.22;;;14.45;55.39
68197;BME280;55019;49.382;11.358;2023-06-14T02:08:22;96261.16;;;14.34;55.73
68197;BME280;55019;49.382;11.358;2023-06-14T02:10:48;96260.97;;;14.36;55.57
68197;BME280;55019;49.382;11.358;2023-06-14T02:13:14;96262.94;;;14.34;56.10
68197;BME280;55019;49.382;11.358;2023-06-14T02:15:40;96272.78;;;14.44;55.36
68197;BME280;55019;49.382;11.358;2023-06-14T02:18:09;96270.66;;;14.54;55.14
68197;BME280;55019;49.382;11.358;2023-06-14T02:20:35;96268.56;;;14.37;55.41
68197;BME280;55019;49.382;11.358;2023-06-14T02:23:01;96267.19;;;14.41;55.56
68197;BME280;55019;49.382;11.358;2023-06-14T02:25:30;96266.81;;;14.50;54.84
68197;BME280;55019;49.382;11.358;2023-06-14T02:27:56;96269.97;;;14.40;55.29
68197;BME280;55019;49.382;11.358;2023-06-14T02:30:21;96269.19;;;14.45;55.31
68197;BME280;55019;49.382;11.358;2023-06-14T02:32:47;96252.81;;;14.51;54.78
68197;BME280;55019;49.382;11.358;2023-06-14T02:35:14;96257.41;;;14.49;54.93
68197;BME280;55019;49.382;11.358;2023-06-14T02:37:39;96262.13;;;14.27;55.26
68197;BME280;55019;49.382;11.358;2023-06-14T02:40:06;96256.94;;;14.27;55.71
68197;BME280;55019;49.382;11.358;2023-06-14T02:42:32;96264.00;;;14.45;55.32
68197;BME280;55019;49.382;11.358;2023-06-14T02:44:58;96255.47;;;14.18;55.79
68197;BME280;55019;49.382;11.358;2023-06-14T02:47:23;96256.78;;;14.07;56.18
68197;BME280;55019;49.382;11.358;2023-06-14T02:49:50;96267.66;;;14.17;56.14
68197;BME280;55019;49.382;11.358;2023-06-14T02:52:16;96267.88;;;14.16;55.96
68197;BME280;55019;49.382;11.358;2023-06-14T02:54:41;96265.00;;;14.11;56.35
68197;BME280;55019;49.382;11.358;2023-06-14T02:57:08;96275.75;;;14.01;56.27
68197;BME280;55019;49.382;11.358;2023-06-14T02:59:34;96264.91;;;13.98;56.86
68197;BME280;55019;49.382;11.358;2023-06-14T03:02:02;96276.91;;;13.99;56.75
68197;BME280;55019;49.382;11.358;2023-06-14T03:04:29;96278.44;;;13.87;55.78
68197;BME280;55019;49.382;11.358;2023-06-14T03:07:01;96270.78;;;14.06;56.12
68197;BME280;55019;49.382;11.358;2023-06-14T03:09:28;96277.16;;;14.04;56.23
68197;BME280;55019;49.382;11.358;2023-06-14T03:11:54;96280.13;;;14.01;55.80
68197;BME280;55019;49.382;11.358;2023-06-14T03:14:20;96274.38;;;13.78;56.74
68197;BME280;55019;49.382;11.358;2023-06-14T03:16:46;96286.13;;;14.01;56.23
68197;BME280;55019;49.382;11.358;2023-06-14T03:19:13;96278.56;;;14.06;56.33
68197;BME280;55019;49.382;11.358;2023-06-14T03:21:39;96277.69;;;13.93;56.56
68197;BME280;55019;49.382;11.358;2023-06-14T03:24:09;96281.00;;;14.08;55.45
68197;BME280;55019;49.382;11.358;2023-06-14T03:26:35;96279.13;;;14.02;55.68
68197;BME280;55019;49.382;11.358;2023-06-14T03:29:02;96285.59;;;13.78;57.45
68197;BME280;55019;49.382;11.358;2023-06-14T03:31:29;96291.34;;;13.74;55.88
68197;BME280;55019;49.382;11.358;2023-06-14T03:33:58;96283.56;;;13.74;57.22
68197;BME280;55019;49.382;11.358;2023-06-14T03:36:25;96285.09;;;13.96;56.28
68197;BME280;55019;49.382;11.358;2023-06-14T03:38:51;96281.63;;;13.82;58.02
68197;BME280;55019;49.382;11.358;2023-06-14T03:41:17;96301.50;;;13.69;58.07
68197;BME280;55019;49.382;11.358;2023-06-14T03:43:43;96305.34;;;13.52;59.30
68197;BME280;55019;49.382;11.358;2023-06-14T03:46:09;96307.16;;;13.79;58.19
68197;BME280;55019;49.382;11.358;2023-06-14T03:48:35;96293.88;;;13.67;57.72
68197;BME280;55019;49.382;11.358;2023-06-14T03:51:01;96297.06;;;13.63;58.76
68197;BME280;55019;49.382;11.358;2023-06-14T03:53:29;96310.75;;;13.78;58.09
68197;BME280;55019;49.382;11.358;2023-06-14T03:55:55;96298.91;;;13.69;58.34
68197;BME280;55019;49.382;11.358;2023-06-14T03:58:24;96303.13;;;13.76;57.83
68197;BME280;55019;49.382;11.358;2023-06-14T04:00:50;96310.88;;;13.70;58.76
68197;BME280;55019;49.382;11.358;2023-06-14T04:03:16;96311.34;;;13.80;57.96
68197;BME280;55019;49.382;11.358;2023-06-14T04:05:42;96301.72;;;13.74;57.66
68197;BME280;55019;49.382;11.358;2023-06-14T04:08:08;96313.94;;;13.80;58.96
68197;BME280;55019;49.382;11.358;2023-06-14T04:10:38;96318.63;;;13.63;59.37
68197;BME280;55019;49.382;11.358;2023-06-14T04:13:13;96318.38;;;13.86;58.14
68197;BME280;55019;49.382;11.358;2023-06-14T04:15:39;96321.19;;;13.84;58.27
68197;BME280;55019;49.382;11.358;2023-06-14T04:18:08;96314.72;;;13.74;59.07
68197;BME280;55019;49.382;11.358;2023-06-14T04:20:34;96325.72;;;13.76;59.21
68197;BME280;55019;49.382;11.358;2023-06-14T04:23:11;96323.50;;;13.73;59.54
68197;BME280;55019;49.382;11.358;2023-06-14T04:25:38;96329.91;;;13.77;59.85
68197;BME280;55019;49.382;11.358;2023-06-14T04:28:05;96317.59;;;13.85;58.89
68197;BME280;55019;49.382;11.358;2023-06-14T04:30:34;96328.06;;;13.71;59.48
68197;BME280;55019;49.382;11.358;2023-06-14T04:33:02;96336.72;;;13.78;59.68
68197;BME280;55019;49.382;11.358;2023-06-14T04:35:32;96339.69;;;13.75;59.23
68197;BME280;55019;49.382;11.358;2023-06-14T04:37:59;96336.16;;;13.61;60.48
68197;BME280;55019;49.382;11.358;2023-06-14T04:40:25;96340.47;;;13.75;60.33
68197;BME280;55019;49.382;11.358;2023-06-14T04:42:51;96337.84;;;13.69;59.81
68197;BME280;55019;49.382;11.358;2023-06-14T04:45:19;96325.25;;;13.66;60.76
68197;BME280;55019;49.382;11.358;2023-06-14T04:47:50;96328.38;;;13.82;60.26
68197;BME280;55019;49.382;11.358;2023-06-14T04:50:17;96337.09;;;13.75;60.31
68197;BME280;55019;49.382;11.358;2023-06-14T04:52:43;96338.69;;;13.76;60.97
68197;BME280;55019;49.382;11.358;2023-06-14T04:55:10;96341.97;;;13.84;60.53
68197;BME280;55019;49.382;11.358;2023-06-14T04:57:36;96340.06;;;13.99;60.46
68197;BME280;55019;49.382;11.358;2023-06-14T05:00:05;96344.56;;;14.12;61.02
68197;BME280;55019;49.382;11.358;2023-06-14T05:02:32;96343.44;;;13.93;61.58
68197;BME280;55019;49.382;11.358;2023-06-14T05:04:58;96341.22;;;14.18;60.98
68197;BME280;55019;49.382;11.358;2023-06-14T05:07:24;96340.81;;;13.93;61.53
68197;BME280;55019;49.382;11.358;2023-06-14T05:09:51;96345.81;;;14.16;61.61
68197;BME280;55019;49.382;11.358;2023-06-14T05:12:17;96349.31;;;14.08;61.75
68197;BME280;55019;49.382;11.358;2023-06-14T05:14:44;96341.97;;;14.12;61.84
68197;BME280;55019;49.382;11.358;2023-06-14T05:17:10;96348.50;;;14.29;61.56
68197;BME280;55019;49.382;11.358;2023-06-14T05:19:36;96348.72;;;14.34;61.33
68197;BME280;55019;49.382;11.358;2023-06-14T05:22:02;96349.72;;;14.33;61.60
68197;BME280;55019;49.382;11.358;2023-06-14T05:24:28;96348.75;;;14.40;62.15
68197;BME280;55019;49.382;11.358;2023-06-14T05:26:57;96354.50;;;14.69;61.11
68197;BME280;55019;49.382;11.358;2023-06-14T05:29:23;96355.72;;;14.73;60.64
68197;BME280;55019;49.382;11.358;2023-06-14T05:31:49;96356.13;;;14.70;60.35
68197;BME280;55019;49.382;11.358;2023-06-14T05:34:14;96359.66;;;14.63;59.31
68197;BME280;55019;49.382;11.358;2023-06-14T05:36:40;96365.41;;;14.92;59.66
68197;BME280;55019;49.382;11.358;2023-06-14T05:39:06;96354.16;;;14.85;59.13
68197;BME280;55019;49.382;11.358;2023-06-14T05:41:32;96361.06;;;15.06;58.80
68197;BME280;55019;49.382;11.358;2023-06-14T05:43:57;96372.31;;;15.19;59.15
68197;BME280;55019;49.382;11.358;2023-06-14T05:46:25;96352.06;;;15.15;58.79
68197;BME280;55019;49.382;11.358;2023-06-14T05:48:51;96367.38;;;15.37;58.46
68197;BME280;55019;49.382;11.358;2023-06-14T05:51:17;96369.97;;;15.37;57.54
68197;BME280;55019;49.382;11.358;2023-06-14T05:53:49;96366.41;;;15.58;56.42
68197;BME280;55019;49.382;11.358;2023-06-14T05:56:15;96376.84;;;15.71;56.81
68197;BME280;55019;49.382;11.358;2023-06-14T05:58:43;96370.84;;;15.70;55.67
68197;BME280;55019;49.382;11.358;2023-06-14T06:01:09;96383.28;;;15.88;56.13
68197;BME280;55019;49.382;11.358;2023-06-14T06:03:35;96377.25;;;15.93;55.80
68197;BME280;55019;49.382;11.358;2023-06-14T06:06:00;96379.66;;;15.95;56.54
68197;BME280;55019;49.382;11.358;2023-06-14T06:08:27;96375.25;;;15.83;56.68
68197;BME280;55019;49.382;11.358;2023-06-14T06:10:52;96374.84;;;15.79;56.43
68197;BME280;55019;49.382;11.358;2023-06-14T06:13:18;96371.63;;;15.77;56.27
68197;BME280;55019;49.382;11.358;2023-06-14T06:15:44;96377.22;;;15.81;55.76
68197;BME280;55019;49.382;11.358;2023-06-14T06:18:10;96382.03;;;16.03;55.25
68197;BME280;55019;49.382;11.358;2023-06-14T06:20:36;96382.88;;;16.03;55.21
68197;BME280;55019;49.382;11.358;2023-06-14T06:23:02;96388.06;;;16.23;55.89
68197;BME280;55019;49.382;11.358;2023-06-14T06:25:28;96388.06;;;16.36;53.91
68197;BME280;55019;49.382;11.358;2023-06-14T06:27:54;96378.84;;;16.46;54.46
68197;BME280;55019;49.382;11.358;2023-06-14T06:30:21;96391.22;;;16.77;54.37
68197;BME280;55019;49.382;11.358;2023-06-14T06:32:47;96392.44;;;16.61;53.03
68197;BME280;55019;49.382;11.358;2023-06-14T06:35:13;96396.44;;;16.77;53.00
68197;BME280;55019;49.382;11.358;2023-06-14T06:37:40;96393.69;;;16.52;53.60
68197;BME280;55019;49.382;11.358;2023-06-14T06:40:06;96401.09;;;17.19;54.19
68197;BME280;55019;49.382;11.358;2023-06-14T06:42:33;96403.28;;;17.22;51.46
68197;BME280;55019;49.382;11.358;2023-06-14T06:45:03;96408.44;;;17.41;52.03
68197;BME280;55019;49.382;11.358;2023-06-14T06:47:30;96409.47;;;17.34;51.32
68197;BME280;55019;49.382;11.358;2023-06-14T06:49:56;96410.16;;;17.53;52.65
68197;BME280;55019;49.382;11.358;2023-06-14T06:52:22;96404.53;;;17.87;50.55
68197;BME280;55019;49.382;11.358;2023-06-14T06:54:48;96411.53;;;17.93;49.67
68197;BME280;55019;49.382;11.358;2023-06-14T06:57:14;96410.16;;;18.64;49.42
68197;BME280;55019;49.382;11.358;2023-06-14T06:59:40;96416.22;;;18.58;48.04
68197;BME280;55019;49.382;11.358;2023-06-14T07:02:06;96417.88;;;18.77;48.60
68197;BME280;55019;49.382;11.358;2023-06-14T07:04:32;96419.22;;;19.22;48.29
68197;BME280;55019;49.382;11.358;2023-06-14T07:06:57;96408.06;;;18.91;46.33
68197;BME280;55019;49.382;11.358;2023-06-14T07:09:23;96402.00;;;19.08;46.48
68197;BME280;55019;49.382;11.358;2023-06-14T07:11:50;96410.81;;;19.13;47.16
68197;BME280;55019;49.382;11.358;2023-06-14T07:14:16;96409.28;;;19.06;45.65
68197;BME280;55019;49.382;11.358;2023-06-14T07:16:42;96411.03;;;18.94;46.49
68197;BME280;55019;49.382;11.358;2023-06-14T07:19:08;96418.81;;;18.83;46.47
68197;BME280;55019;49.382;11.358;2023-06-14T07:21:34;96410.59;;;18.97;46.39
68197;BME280;55019;49.382;11.358;2023-06-14T07:24:01;96401.78;;;19.27;45.77
68197;BME280;55019;49.382;11.358;2023-06-14T07:26:26;96406.78;;;19.47;46.17
68197;BME280;55019;49.382;11.358;2023-06-14T07:28:52;96413.63;;;19.48;45.58
68197;BME280;55019;49.382;11.358;2023-06-14T07:31:18;96424.78;;;19.73;44.63
68197;BME280;55019;49.382;11.358;2023-06-14T07:33:45;96410.78;;;20.08;45.67
68197;BME280;55019;49.382;11.358;2023-06-14T07:36:11;96422.75;;;20.27;43.43
68197;BME280;55019;49.382;11.358;2023-06-14T07:38:37;96407.59;;;20.63;44.93
68197;BME280;55019;49.382;11.358;2023-06-14T07:41:03;96422.31;;;20.64;42.33
68197;BME280;55019;49.382;11.358;2023-06-14T07:43:28;96417.06;;;20.64;43.63
68197;BME280;55019;49.382;11.358;2023-06-14T07:45:54;96424.28;;;20.80;41.28
68197;BME280;55019;49.382;11.358;2023-06-14T07:48:20;96426.44;;;20.60;43.57
68197;BME280;55019;49.382;11.358;2023-06-14T07:50:46;96428.63;;;20.86;42.84
68197;BME280;55019;49.382;11.358;2023-06-14T07:53:14;96425.50;;;21.12;41.45
68197;BME280;55019;49.382;11.358;2023-06-14T07:55:40;96428.09;;;21.35;40.00
68197;BME280;55019;49.382;11.358;2023-06-14T07:58:09;96428.56;;;21.32;40.43
68197;BME280;55019;49.382;11.358;2023-06-14T08:00:34;96427.53;;;21.33;40.59
68197;BME280;55019;49.382;11.358;2023-06-14T08:03:00;96433.13;;;21.76;38.81
68197;BME280;55019;49.382;11.358;2023-06-14T08:05:27;96432.47;;;21.69;38.86
68197;BME280;55019;49.382;11.358;2023-06-14T08:07:53;96437.94;;;21.56;38.70
68197;BME280;55019;49.382;11.358;2023-06-14T08:10:20;96440.44;;;21.74;41.95
68197;BME280;55019;49.382;11.358;2023-06-14T08:12:46;96433.97;;;21.54;37.97
68197;BME280;55019;49.382;11.358;2023-06-14T08:15:11;96441.28;;;21.91;39.30
68197;BME280;55019;49.382;11.358;2023-06-14T08:17:37;96451.97;;;22.01;39.71
68197;BME280;55019;49.382;11.358;2023-06-14T08:20:03;96446.00;;;21.78;38.90
68197;BME280;55019;49.382;11.358;2023-06-14T08:22:33;96448.69;;;22.38;39.65
68197;BME280;55019;49.382;11.358;2023-06-14T08:25:00;96436.69;;;22.64;37.59
68197;BME280;55019;49.382;11.358;2023-06-14T08:27:26;96439.56;;;22.79;38.18
68197;BME280;55019;49.382;11.358;2023-06-14T08:29:53;96431.75;;;23.22;37.73
68197;BME280;55019;49.382;11.358;2023-06-14T08:32:19;96448.00;;;23.56;38.14
68197;BME280;55019;49.382;11.358;2023-06-14T08:34:45;96443.31;;;23.63;36.84
68197;BME280;55019;49.382;11.358;2023-06-14T08:37:11;96448.03;;;23.61;37.39
68197;BME280;55019;49.382;11.358;2023-06-14T08:39:36;96449.69;;;23.67;36.64
68197;BME280;55019;49.382;11.358;2023-06-14T08:42:03;96443.47;;;24.26;37.41
68197;BME280;55019;49.382;11.358;2023-06-14T08:44:30;96435.44;;;24.16;36.54
68197;BME280;55019;49.382;11.358;2023-06-14T08:46:56;96452.78;;;23.59;35.61
68197;BME280;55019;49.382;11.358;2023-06-14T08:49:25;96456.50;;;23.63;35.70
68197;BME280;55019;49.382;11.358;2023-06-14T08:51:58;96461.25;;;24.09;37.62
68197;BME280;55019;49.382;11.358;2023-06-14T08:54:28;96464.75;;;24.46;36.46
68197;BME280;55019;49.382;11.358;2023-06-14T08:56:56;96459.88;;;24.60;35.36
68197;BME280;55019;49.382;11.358;2023-06-14T08:59:26;96463.50;;;24.85;34.12
68197;BME280;55019;49.382;11.358;2023-06-14T09:01:55;96461.97;;;24.94;34.07
68197;BME280;55019;49.382;11.358;2023-06-14T09:04:21;96457.66;;;24.20;34.71
68197;BME280;55019;49.382;11.358;2023-06-14T09:07:00;96460.38;;;24.25;34.78
68197;BME280;55019;49.382;11.358;2023-06-14T09:09:29;96465.06;;;25.17;34.04
68197;BME280;55019;49.382;11.358;2023-06-14T09:11:57;96457.31;;;24.70;33.38
68197;BME280;55019;49.382;11.358;2023-06-14T09:14:24;96458.00;;;24.29;32.74
68197;BME280;55019;49.382;11.358;2023-06-14T09:16:54;96465.38;;;24.53;33.35
68197;BME280;55019;49.382;11.358;2023-06-14T09:19:23;96469.34;;;24.87;32.55
68197;BME280;55019;49.382;11.358;2023-06-14T09:21:49;96460.03;;;24.80;32.82
68197;BME280;55019;49.382;11.358;2023-06-14T09:24:15;96453.69;;;24.49;33.05
68197;BME280;55019;49.382;11.358;2023-06-14T09:26:41;96459.81;;;24.86;33.15
68197;BME280;55019;49.382;11.358;2023-06-14T09:29:09;96460.66;;;24.60;33.40
68197;BME280;55019;49.382;11.358;2023-06-14T09:31:35;96464.25;;;25.78;32.86
68197;BME280;55019;49.382;11.358;2023-06-14T09:34:02;96464.91;;;25.44;33.80
68197;BME280;55019;49.382;11.358;2023-06-14T09:36:28;96465.16;;;26.19;31.26
68197;BME280;55019;49.382;11.358;2023-06-14T09:38:55;96460.47;;;25.54;30.80
68197;BME280;55019;49.382;11.358;2023-06-14T09:41:31;96458.84;;;26.30;31.85
68197;BME280;55019;49.382;11.358;2023-06-14T09:43:59;96461.72;;;26.43;31.77
68197;BME280;55019;49.382;11.358;2023-06-14T09:46:29;96454.06;;;26.91;29.97
68197;BME280;55019;49.382;11.358;2023-06-14T09:48:56;96458.78;;;27.24;28.77
68197;BME280;55019;49.382;11.358;2023-06-14T09:51:25;96468.97;;;27.76;29.69
68197;BME280;55019;49.382;11.358;2023-06-14T09:53:53;96465.75;;;26.80;30.27
68197;BME280;55019;49.382;11.358;2023-06-14T09:56:27;96463.66;;;25.61;32.10
68197;BME280;55019;49.382;11.358;2023-06-14T09:58:59;96468.66;;;25.58;32.88
68197;BME280;55019;49.382;11.358;2023-06-14T10:01:26;96465.19;;;25.01;32.62
68197;BME280;55019;49.382;11.358;2023-06-14T10:03:58;96465.50;;;24.73;34.29
68197;BME280;55019;49.382;11.358;2023-06-14T10:06:26;96467.28;;;24.31;32.26
68197;BME280;55019;49.382;11.358;2023-06-14T10:08:57;96469.38;;;24.29;33.41
68197;BME280;55019;49.382;11.358;2023-06-14T10:11:28;96476.41;;;23.49;33.95
68197;BME280;55019;49.382;11.358;2023-06-14T10:13:58;96471.97;;;23.34;36.49
68197;BME280;55019;49.382;11.358;2023-06-14T10:16:31;96467.50;;;22.80;34.95
68197;BME280;55019;49.382;11.358;2023-06-14T10:19:16;96472.16;;;22.40;35.46
68197;BME280;55019;49.382;11.358;2023-06-14T10:22:08;96480.59;;;22.42;36.69
68197;BME280;55019;49.382;11.358;2023-06-14T10:24:41;96467.53;;;22.47;37.13
68197;BME280;55019;49.382;11.358;2023-06-14T10:27:07;96467.38;;;22.37;36.72
68197;BME280;55019;49.382;11.358;2023-06-14T10:32:24;96483.97;;;22.09;37.44
68197;BME280;55019;49.382;11.358;2023-06-14T10:35:05;96484.13;;;21.75;37.38
68197;BME280;55019;49.382;11.358;2023-06-14T10:37:32;96480.81;;;21.96;38.81
68197;BME280;55019;49.382;11.358;2023-06-14T10:39:58;96477.44;;;21.84;38.86
68197;BME280;55019;49.382;11.358;2023-06-14T10:42:28;96468.34;;;21.75;37.67
68197;BME280;55019;49.382;11.358;2023-06-14T10:44:55;96472.22;;;21.73;39.48
68197;BME280;55019;49.382;11.358;2023-06-14T10:47:29;96475.38;;;21.86;38.70
68197;BME280;55019;49.382;11.358;2023-06-14T10:50:06;96474.34;;;22.31;38.40
68197;BME280;55019;49.382;11.358;2023-06-14T10:52:40;96474.13;;;22.05;37.50
68197;BME280;55019;49.382;11.358;2023-06-14T10:55:14;96481.53;;;22.36;36.81
68197;BME280;55019;49.382;11.358;2023-06-14T10:57:51;96463.31;;;22.01;37.43
68197;BME280;55019;49.382;11.358;2023-06-14T11:00:19;96462.50;;;22.01;37.03
68197;BME280;55019;49.382;11.358;2023-06-14T11:05:57;96467.88;;;23.43;36.06
68197;BME280;55019;49.382;11.358;2023-06-14T11:11:12;96470.63;;;23.52;31.17
68197;BME280;55019;49.382;11.358;2023-06-14T11:13:45;96468.00;;;23.52;31.87
68197;BME280;55019;49.382;11.358;2023-06-14T11:16:12;96458.44;;;22.71;32.66
68197;BME280;55019;49.382;11.358;2023-06-14T11:18:39;96463.97;;;23.07;31.36
68197;BME280;55019;49.382;11.358;2023-06-14T11:21:05;96461.38;;;23.50;32.59
68197;BME280;55019;49.382;11.358;2023-06-14T11:23:31;96461.00;;;23.42;31.97
68197;BME280;55019;49.382;11.358;2023-06-14T11:25:56;96455.88;;;23.14;32.85
68197;BME280;55019;49.382;11.358;2023-06-14T11:28:22;96450.25;;;23.91;33.98
68197;BME280;55019;49.382;11.358;2023-06-14T11:30:59;96458.53;;;24.57;31.06
68197;BME280;55019;49.382;11.358;2023-06-14T11:33:25;96448.94;;;25.24;29.95
68197;BME280;55019;49.382;11.358;2023-06-14T11:35:51;96451.22;;;25.62;28.60
68197;BME280;55019;49.382;11.358;2023-06-14T11:38:18;96457.28;;;26.49;26.64
68197;BME280;55019;49.382;11.358;2023-06-14T11:40:44;96461.44;;;26.10;25.04
68197;BME280;55019;49.382;11.358;2023-06-14T11:43:09;96447.63;;;27.27;27.66
68197;BME280;55019;49.382;11.358;2023-06-14T11:45:35;96452.47;;;26.41;25.94
68197;BME280;55019;49.382;11.358;2023-06-14T11:48:01;96446.16;;;26.47;27.34
68197;BME280;55019;49.382;11.358;2023-06-14T11:50:27;96458.34;;;26.48;27.70
68197;BME280;55019;49.382;11.358;2023-06-14T11:52:58;96447.16;;;26.21;28.41
68197;BME280;55019;49.382;11.358;2023-06-14T11:55:37;96457.13;;;25.79;27.99
68197;BME280;55019;49.382;11.358;2023-06-14T11:58:03;96449.25;;;26.09;26.89
68197;BME280;55019;49.382;11.358;2023-06-14T12:00:30;96449.84;;;26.56;26.69
68197;BME280;55019;49.382;11.358;2023-06-14T12:02:56;96455.84;;;26.01;28.02
68197;BME280;55019;49.382;11.358;2023-06-14T12:05:22;96438.66;;;25.99;27.40
68197;BME280;55019;49.382;11.358;2023-06-14T12:07:49;96446.91;;;26.17;26.90
68197;BME280;55019;49.382;11.358;2023-06-14T12:10:16;96438.94;;;26.27;26.10
68197;BME280;55019;49.382;11.358;2023-06-14T12:12:42;96439.75;;;26.38;26.19
68197;BME280;55019;49.382;11.358;2023-06-14T12:15:09;96452.50;;;26.51;25.84
68197;BME280;55019;49.382;11.358;2023-06-14T12:17:37;96435.53;;;26.66;25.09
68197;BME280;55019;49.382;11.358;2023-06-14T12:20:12;96438.06;;;25.82;24.72
68197;BME280;55019;49.382;11.358;2023-06-14T12:27:58;96432.34;;;26.79;24.24
68197;BME280;55019;49.382;11.358;2023-06-14T12:30:24;96436.34;;;26.57;26.05
68197;BME280;55019;49.382;11.358;2023-06-14T12:32:49;96439.81;;;27.66;25.74
68197;BME280;55019;49.382;11.358;2023-06-14T12:35:17;96415.25;;;28.37;23.66
68197;BME280;55019;49.382;11.358;2023-06-14T12:37:45;96424.38;;;28.88;25.04
68197;BME280;55019;49.382;11.358;2023-06-14T12:40:12;96425.41;;;28.92;22.62
68197;BME280;55019;49.382;11.358;2023-06-14T12:42:37;96437.22;;;28.76;23.15
68197;BME280;55019;49.382;11.358;2023-06-14T12:45:03;96434.72;;;27.74;24.33
68197;BME280;55019;49.382;11.358;2023-06-14T12:47:29;96437.41;;;28.17;24.15
68197;BME280;55019;49.382;11.358;2023-06-14T12:49:55;96432.31;;;28.21;24.42
68197;BME280;55019;49.382;11.358;2023-06-14T12:52:21;96441.25;;;27.33;23.78
68197;BME280;55019;49.382;11.358;2023-06-14T12:54:46;96447.13;;;25.91;24.50
68197;BME280;55019;49.382;11.358;2023-06-14T12:57:12;96445.66;;;25.53;26.12
68197;BME280;55019;49.382;11.358;2023-06-14T12:59:38;96432.69;;;25.57;27.84
68197;BME280;55019;49.382;11.358;2023-06-14T13:02:13;96434.66;;;24.79;27.06
68197;BME280;55019;49.382;11.358;2023-06-14T13:04:40;96438.09;;;24.16;27.46
68197;BME280;55019;49.382;11.358;2023-06-14T13:07:06;96437.91;;;23.75;27.54
68197;BME280;55019;49.382;11.358;2023-06-14T13:09:32;96433.50;;;24.33;29.43